sensor_id;sensor_type;location;lat;lon;timestamp;P1;durP1;ratioP1;P2;durP2;ratioP2
10293;SDS011;5192;50.328;7.610;2022-10-17T00:00:51;11.47;;;6.87;;
10293;SDS011;5192;50.328;7.610;2022-10-17T00:03:17;12.50;;;7.20;;
10293;SDS011;5192;50.328;7.610;2022-10-17T00:05:46;10.83;;;7.00;;
10293;SDS011;5192;50.328;7.610;2022-10-17T00:08:14;8.13;;;6.77;;
10293;SDS011;5192;50.328;7.610;2022-10-17T00:10:42;12.70;;;7.80;;
10293;SDS011;5192;50.328;7.610;2022-10-17T00:13:09;13.13;;;7.03;;
10293;SDS011;5192;50.328;7.610;2022-10-17T00:15:35;14.20;;;7.10;;
10293;SDS011;5192;50.328;7.610;2022-10-17T00:18:01;11.60;;;7.67;;
10293;SDS011;5192;50.328;7.610;2022-10-17T00:20:28;15.83;;;7.13;;
10293;SDS011;5192;50.328;7.610;2022-10-17T00:22:56;11.03;;;7.53;;
10293;SDS011;5192;50.328;7.610;2022-10-17T00:25:22;10.13;;;6.77;;
10293;SDS011;5192;50.328;7.610;2022-10-17T00:27:50;10.87;;;6.57;;
10293;SDS011;5192;50.328;7.610;2022-10-17T00:30:16;11.03;;;6.47;;
10293;SDS011;5192;50.328;7.610;2022-10-17T00:32:41;10.93;;;6.50;;
10293;SDS011;5192;50.328;7.610;2022-10-17T00:35:08;10.50;;;7.00;;
10293;SDS011;5192;50.328;7.610;2022-10-17T00:37:34;13.60;;;6.80;;
10293;SDS011;5192;50.328;7.610;2022-10-17T00:40:03;13.37;;;6.87;;
10293;SDS011;5192;50.328;7.610;2022-10-17T00:42:30;14.40;;;7.17;;
10293;SDS011;5192;50.328;7.610;2022-10-17T00:45:04;7.83;;;6.03;;
10293;SDS011;5192;50.328;7.610;2022-10-17T00:48:00;9.97;;;6.47;;
10293;SDS011;5192;50.328;7.610;2022-10-17T00:50:29;14.33;;;6.70;;
10293;SDS011;5192;50.328;7.610;2022-10-17T00:52:57;10.57;;;6.57;;
10293;SDS011;5192;50.328;7.610;2022-10-17T00:55:30;13.10;;;7.07;;
10293;SDS011;5192;50.328;7.610;2022-10-17T00:57:59;13.83;;;6.80;;
10293;SDS011;5192;50.328;7.610;2022-10-17T01:00:30;11.37;;;7.17;;
10293;SDS011;5192;50.328;7.610;2022-10-17T01:02:56;10.63;;;6.90;;
10293;SDS011;5192;50.328;7.610;2022-10-17T01:05:21;8.80;;;6.77;;
10293;SDS011;5192;50.328;7.610;2022-10-17T01:07:48;12.17;;;6.67;;
10293;SDS011;5192;50.328;7.610;2022-10-17T01:10:18;11.43;;;6.33;;
10293;SDS011;5192;50.328;7.610;2022-10-17T01:12:56;11.90;;;6.80;;
10293;SDS011;5192;50.328;7.610;2022-10-17T01:15:51;12.97;;;7.37;;
10293;SDS011;5192;50.328;7.610;2022-10-17T01:32:44;12.10;;;6.83;;
10293;SDS011;5192;50.328;7.610;2022-10-17T01:38:29;12.07;;;6.73;;
10293;SDS011;5192;50.328;7.610;2022-10-17T01:41:05;13.67;;;6.83;;
10293;SDS011;5192;50.328;7.610;2022-10-17T01:46:37;13.83;;;7.00;;
10293;SDS011;5192;50.328;7.610;2022-10-17T01:49:07;8.67;;;6.93;;
10293;SDS011;5192;50.328;7.610;2022-10-17T01:51:36;15.13;;;6.90;;
10293;SDS011;5192;50.328;7.610;2022-10-17T01:54:17;12.93;;;6.80;;
10293;SDS011;5192;50.328;7.610;2022-10-17T01:56:50;9.03;;;6.80;;
10293;SDS011;5192;50.328;7.610;2022-10-17T01:59:20;11.50;;;6.80;;
10293;SDS011;5192;50.328;7.610;2022-10-17T02:01:51;12.27;;;6.87;;
10293;SDS011;5192;50.328;7.610;2022-10-17T02:04:18;11.37;;;7.67;;
10293;SDS011;5192;50.328;7.610;2022-10-17T02:06:44;14.03;;;7.60;;
10293;SDS011;5192;50.328;7.610;2022-10-17T02:21:06;11.73;;;6.60;;
10293;SDS011;5192;50.328;7.610;2022-10-17T02:29:25;16.03;;;7.20;;
10293;SDS011;5192;50.328;7.610;2022-10-17T02:32:16;11.80;;;7.17;;
10293;SDS011;5192;50.328;7.610;2022-10-17T02:34:51;9.20;;;6.73;;
10293;SDS011;5192;50.328;7.610;2022-10-17T02:37:32;12.07;;;7.27;;
10293;SDS011;5192;50.328;7.610;2022-10-17T02:40:00;14.77;;;7.17;;
10293;SDS011;5192;50.328;7.610;2022-10-17T02:42:30;12.80;;;7.30;;
10293;SDS011;5192;50.328;7.610;2022-10-17T02:44:58;13.90;;;7.50;;
10293;SDS011;5192;50.328;7.610;2022-10-17T02:47:31;12.23;;;6.97;;
10293;SDS011;5192;50.328;7.610;2022-10-17T02:50:08;11.97;;;7.10;;
10293;SDS011;5192;50.328;7.610;2022-10-17T02:55:29;12.63;;;6.80;;
10293;SDS011;5192;50.328;7.610;2022-10-17T02:58:26;9.57;;;6.50;;
10293;SDS011;5192;50.328;7.610;2022-10-17T03:00:53;13.10;;;7.53;;
10293;SDS011;5192;50.328;7.610;2022-10-17T03:03:23;11.90;;;7.07;;
10293;SDS011;5192;50.328;7.610;2022-10-17T03:05:57;13.17;;;7.17;;
10293;SDS011;5192;50.328;7.610;2022-10-17T03:08:24;13.70;;;7.53;;
10293;SDS011;5192;50.328;7.610;2022-10-17T03:10:51;9.97;;;7.00;;
10293;SDS011;5192;50.328;7.610;2022-10-17T03:13:19;13.83;;;7.33;;
10293;SDS011;5192;50.328;7.610;2022-10-17T03:15:45;10.13;;;6.70;;
10293;SDS011;5192;50.328;7.610;2022-10-17T03:18:12;11.70;;;7.33;;
10293;SDS011;5192;50.328;7.610;2022-10-17T03:20:38;9.23;;;7.50;;
10293;SDS011;5192;50.328;7.610;2022-10-17T03:23:04;11.37;;;7.43;;
10293;SDS011;5192;50.328;7.610;2022-10-17T03:25:31;12.13;;;7.70;;
10293;SDS011;5192;50.328;7.610;2022-10-17T03:27:57;14.70;;;8.07;;
10293;SDS011;5192;50.328;7.610;2022-10-17T03:30:24;9.30;;;7.43;;
10293;SDS011;5192;50.328;7.610;2022-10-17T03:32:50;15.27;;;7.90;;
10293;SDS011;5192;50.328;7.610;2022-10-17T03:35:17;14.90;;;7.50;;
10293;SDS011;5192;50.328;7.610;2022-10-17T03:37:43;11.10;;;7.83;;
10293;SDS011;5192;50.328;7.610;2022-10-17T03:40:10;12.33;;;8.00;;
10293;SDS011;5192;50.328;7.610;2022-10-17T03:42:37;9.53;;;7.50;;
10293;SDS011;5192;50.328;7.610;2022-10-17T03:45:02;10.73;;;7.27;;
10293;SDS011;5192;50.328;7.610;2022-10-17T03:47:29;18.07;;;8.47;;
10293;SDS011;5192;50.328;7.610;2022-10-17T03:49:55;13.07;;;8.07;;
10293;SDS011;5192;50.328;7.610;2022-10-17T03:52:22;10.73;;;7.67;;
10293;SDS011;5192;50.328;7.610;2022-10-17T03:54:48;15.70;;;8.00;;
10293;SDS011;5192;50.328;7.610;2022-10-17T03:57:16;11.13;;;7.63;;
10293;SDS011;5192;50.328;7.610;2022-10-17T03:59:42;16.73;;;8.00;;
10293;SDS011;5192;50.328;7.610;2022-10-17T04:02:09;10.63;;;7.97;;
10293;SDS011;5192;50.328;7.610;2022-10-17T04:04:37;9.90;;;7.93;;
10293;SDS011;5192;50.328;7.610;2022-10-17T04:07:04;9.83;;;7.33;;
10293;SDS011;5192;50.328;7.610;2022-10-17T04:09:30;8.60;;;7.70;;
10293;SDS011;5192;50.328;7.610;2022-10-17T04:11:58;7.70;;;6.70;;
10293;SDS011;5192;50.328;7.610;2022-10-17T04:14:24;10.47;;;7.17;;
10293;SDS011;5192;50.328;7.610;2022-10-17T04:16:50;9.77;;;7.37;;
10293;SDS011;5192;50.328;7.610;2022-10-17T04:19:17;8.77;;;6.93;;
10293;SDS011;5192;50.328;7.610;2022-10-17T04:21:43;9.50;;;7.07;;
10293;SDS011;5192;50.328;7.610;2022-10-17T04:24:11;9.80;;;6.67;;
10293;SDS011;5192;50.328;7.610;2022-10-17T04:26:38;13.03;;;7.30;;
10293;SDS011;5192;50.328;7.610;2022-10-17T04:29:05;10.73;;;7.67;;
10293;SDS011;5192;50.328;7.610;2022-10-17T04:31:32;8.23;;;7.33;;
10293;SDS011;5192;50.328;7.610;2022-10-17T04:33:59;8.30;;;6.90;;
10293;SDS011;5192;50.328;7.610;2022-10-17T04:36:26;11.80;;;9.73;;
10293;SDS011;5192;50.328;7.610;2022-10-17T04:38:51;12.67;;;9.60;;
10293;SDS011;5192;50.328;7.610;2022-10-17T04:41:18;10.60;;;7.90;;
10293;SDS011;5192;50.328;7.610;2022-10-17T04:43:45;8.70;;;7.30;;
10293;SDS011;5192;50.328;7.610;2022-10-17T04:46:13;14.13;;;7.40;;
10293;SDS011;5192;50.328;7.610;2022-10-17T04:48:41;9.83;;;7.57;;
10293;SDS011;5192;50.328;7.610;2022-10-17T04:51:09;10.50;;;7.27;;
10293;SDS011;5192;50.328;7.610;2022-10-17T04:53:39;10.67;;;7.60;;
10293;SDS011;5192;50.328;7.610;2022-10-17T04:56:12;14.00;;;7.30;;
10293;SDS011;5192;50.328;7.610;2022-10-17T04:58:40;11.07;;;7.67;;
10293;SDS011;5192;50.328;7.610;2022-10-17T05:01:11;11.60;;;7.53;;
10293;SDS011;5192;50.328;7.610;2022-10-17T05:03:44;8.70;;;6.87;;
10293;SDS011;5192;50.328;7.610;2022-10-17T05:06:13;10.03;;;7.37;;
10293;SDS011;5192;50.328;7.610;2022-10-17T05:08:41;9.50;;;7.57;;
10293;SDS011;5192;50.328;7.610;2022-10-17T05:11:24;11.13;;;7.30;;
10293;SDS011;5192;50.328;7.610;2022-10-17T05:13:55;9.13;;;7.90;;
10293;SDS011;5192;50.328;7.610;2022-10-17T05:16:24;10.53;;;7.87;;
10293;SDS011;5192;50.328;7.610;2022-10-17T05:18:53;10.90;;;8.03;;
10293;SDS011;5192;50.328;7.610;2022-10-17T05:21:22;9.33;;;7.80;;
10293;SDS011;5192;50.328;7.610;2022-10-17T05:23:49;9.10;;;8.20;;
10293;SDS011;5192;50.328;7.610;2022-10-17T05:26:17;11.07;;;7.87;;
10293;SDS011;5192;50.328;7.610;2022-10-17T05:28:45;9.83;;;8.37;;
10293;SDS011;5192;50.328;7.610;2022-10-17T05:31:10;11.23;;;8.70;;
10293;SDS011;5192;50.328;7.610;2022-10-17T05:33:37;8.73;;;7.87;;
10293;SDS011;5192;50.328;7.610;2022-10-17T05:36:03;8.10;;;7.30;;
10293;SDS011;5192;50.328;7.610;2022-10-17T05:38:31;10.13;;;6.80;;
10293;SDS011;5192;50.328;7.610;2022-10-17T05:40:57;8.27;;;6.97;;
10293;SDS011;5192;50.328;7.610;2022-10-17T05:43:24;11.00;;;6.93;;
10293;SDS011;5192;50.328;7.610;2022-10-17T05:45:51;6.83;;;5.87;;
10293;SDS011;5192;50.328;7.610;2022-10-17T05:48:18;7.50;;;6.03;;
10293;SDS011;5192;50.328;7.610;2022-10-17T05:50:44;7.47;;;5.47;;
10293;SDS011;5192;50.328;7.610;2022-10-17T05:53:10;9.10;;;5.87;;
10293;SDS011;5192;50.328;7.610;2022-10-17T05:55:36;5.93;;;5.40;;
10293;SDS011;5192;50.328;7.610;2022-10-17T05:58:03;5.60;;;5.10;;
10293;SDS011;5192;50.328;7.610;2022-10-17T06:00:28;8.40;;;5.20;;
10293;SDS011;5192;50.328;7.610;2022-10-17T06:02:54;6.40;;;5.20;;
10293;SDS011;5192;50.328;7.610;2022-10-17T06:05:20;7.63;;;6.13;;
10293;SDS011;5192;50.328;7.610;2022-10-17T06:07:47;9.37;;;5.03;;
10293;SDS011;5192;50.328;7.610;2022-10-17T06:10:17;6.77;;;5.30;;
10293;SDS011;5192;50.328;7.610;2022-10-17T06:12:43;6.43;;;4.90;;
10293;SDS011;5192;50.328;7.610;2022-10-17T06:15:10;5.30;;;4.80;;
10293;SDS011;5192;50.328;7.610;2022-10-17T06:17:37;6.00;;;4.97;;
10293;SDS011;5192;50.328;7.610;2022-10-17T06:20:04;7.70;;;5.20;;
10293;SDS011;5192;50.328;7.610;2022-10-17T06:22:30;5.57;;;4.97;;
10293;SDS011;5192;50.328;7.610;2022-10-17T06:24:57;7.33;;;4.93;;
10293;SDS011;5192;50.328;7.610;2022-10-17T06:27:24;7.67;;;5.10;;
10293;SDS011;5192;50.328;7.610;2022-10-17T06:29:50;7.53;;;4.93;;
10293;SDS011;5192;50.328;7.610;2022-10-17T06:32:16;6.77;;;5.17;;
10293;SDS011;5192;50.328;7.610;2022-10-17T06:34:42;6.63;;;4.47;;
10293;SDS011;5192;50.328;7.610;2022-10-17T06:37:08;5.50;;;4.90;;
10293;SDS011;5192;50.328;7.610;2022-10-17T06:39:34;6.27;;;5.23;;
10293;SDS011;5192;50.328;7.610;2022-10-17T06:42:00;7.37;;;4.70;;
10293;SDS011;5192;50.328;7.610;2022-10-17T06:44:27;7.97;;;4.60;;
10293;SDS011;5192;50.328;7.610;2022-10-17T06:47:00;5.87;;;4.57;;
10293;SDS011;5192;50.328;7.610;2022-10-17T06:49:26;8.87;;;5.13;;
10293;SDS011;5192;50.328;7.610;2022-10-17T06:51:52;6.00;;;4.90;;
10293;SDS011;5192;50.328;7.610;2022-10-17T06:54:18;7.57;;;4.90;;
10293;SDS011;5192;50.328;7.610;2022-10-17T06:56:43;7.93;;;4.83;;
10293;SDS011;5192;50.328;7.610;2022-10-17T06:59:09;8.27;;;4.57;;
10293;SDS011;5192;50.328;7.610;2022-10-17T07:01:35;5.50;;;4.50;;
10293;SDS011;5192;50.328;7.610;2022-10-17T07:04:02;6.17;;;4.83;;
10293;SDS011;5192;50.328;7.610;2022-10-17T07:06:29;8.57;;;5.30;;
10293;SDS011;5192;50.328;7.610;2022-10-17T07:08:55;5.27;;;4.10;;
10293;SDS011;5192;50.328;7.610;2022-10-17T07:11:22;5.03;;;4.13;;
10293;SDS011;5192;50.328;7.610;2022-10-17T07:13:47;7.07;;;4.10;;
10293;SDS011;5192;50.328;7.610;2022-10-17T07:16:14;7.20;;;4.33;;
10293;SDS011;5192;50.328;7.610;2022-10-17T07:18:42;4.70;;;4.23;;
10293;SDS011;5192;50.328;7.610;2022-10-17T07:21:13;5.60;;;4.23;;
10293;SDS011;5192;50.328;7.610;2022-10-17T07:23:40;5.57;;;5.00;;
10293;SDS011;5192;50.328;7.610;2022-10-17T07:26:08;4.80;;;4.10;;
10293;SDS011;5192;50.328;7.610;2022-10-17T07:28:39;5.60;;;4.03;;
10293;SDS011;5192;50.328;7.610;2022-10-17T07:31:12;6.20;;;4.30;;
10293;SDS011;5192;50.328;7.610;2022-10-17T07:33:43;7.30;;;4.20;;
10293;SDS011;5192;50.328;7.610;2022-10-17T07:36:10;5.23;;;4.07;;
10293;SDS011;5192;50.328;7.610;2022-10-17T07:38:41;8.87;;;3.80;;
10293;SDS011;5192;50.328;7.610;2022-10-17T07:41:08;6.03;;;3.70;;
10293;SDS011;5192;50.328;7.610;2022-10-17T07:43:37;6.30;;;3.53;;
10293;SDS011;5192;50.328;7.610;2022-10-17T07:46:04;4.87;;;3.67;;
10293;SDS011;5192;50.328;7.610;2022-10-17T07:48:31;7.50;;;4.10;;
10293;SDS011;5192;50.328;7.610;2022-10-17T07:51:00;6.67;;;3.60;;
10293;SDS011;5192;50.328;7.610;2022-10-17T07:53:27;4.63;;;3.47;;
10293;SDS011;5192;50.328;7.610;2022-10-17T07:55:53;4.90;;;3.70;;
10293;SDS011;5192;50.328;7.610;2022-10-17T07:58:20;8.40;;;4.20;;
10293;SDS011;5192;50.328;7.610;2022-10-17T08:00:45;3.97;;;3.63;;
10293;SDS011;5192;50.328;7.610;2022-10-17T08:03:16;15.53;;;4.53;;
10293;SDS011;5192;50.328;7.610;2022-10-17T08:05:41;12.83;;;4.33;;
10293;SDS011;5192;50.328;7.610;2022-10-17T08:08:08;4.63;;;3.80;;
10293;SDS011;5192;50.328;7.610;2022-10-17T08:10:34;7.63;;;3.70;;
10293;SDS011;5192;50.328;7.610;2022-10-17T08:13:01;5.00;;;3.73;;
10293;SDS011;5192;50.328;7.610;2022-10-17T08:15:27;5.97;;;3.90;;
10293;SDS011;5192;50.328;7.610;2022-10-17T08:17:55;5.33;;;3.60;;
10293;SDS011;5192;50.328;7.610;2022-10-17T08:20:21;4.97;;;3.50;;
10293;SDS011;5192;50.328;7.610;2022-10-17T08:22:51;5.57;;;3.67;;
10293;SDS011;5192;50.328;7.610;2022-10-17T08:25:19;5.87;;;3.70;;
10293;SDS011;5192;50.328;7.610;2022-10-17T08:27:46;4.00;;;3.60;;
10293;SDS011;5192;50.328;7.610;2022-10-17T08:30:13;6.63;;;3.90;;
10293;SDS011;5192;50.328;7.610;2022-10-17T08:32:40;4.70;;;3.00;;
10293;SDS011;5192;50.328;7.610;2022-10-17T08:35:06;3.93;;;3.53;;
10293;SDS011;5192;50.328;7.610;2022-10-17T08:37:32;5.77;;;3.60;;
10293;SDS011;5192;50.328;7.610;2022-10-17T08:39:58;3.93;;;3.23;;
10293;SDS011;5192;50.328;7.610;2022-10-17T08:48:17;8.87;;;3.93;;
10293;SDS011;5192;50.328;7.610;2022-10-17T08:50:47;6.27;;;3.20;;
10293;SDS011;5192;50.328;7.610;2022-10-17T08:53:26;5.73;;;3.37;;
10293;SDS011;5192;50.328;7.610;2022-10-17T08:55:55;4.07;;;3.50;;
10293;SDS011;5192;50.328;7.610;2022-10-17T08:58:27;4.20;;;3.73;;
10293;SDS011;5192;50.328;7.610;2022-10-17T09:06:18;3.73;;;3.23;;
10293;SDS011;5192;50.328;7.610;2022-10-17T09:09:01;6.32;;;3.50;;
10293;SDS011;5192;50.328;7.610;2022-10-17T09:16:46;5.00;;;3.38;;
10293;SDS011;5192;50.328;7.610;2022-10-17T09:19:18;6.67;;;3.10;;
10293;SDS011;5192;50.328;7.610;2022-10-17T09:22:02;4.82;;;3.25;;
10293;SDS011;5192;50.328;7.610;2022-10-17T09:24:41;4.93;;;3.55;;
10293;SDS011;5192;50.328;7.610;2022-10-17T09:27:32;3.85;;;3.20;;
10293;SDS011;5192;50.328;7.610;2022-10-17T09:32:58;4.43;;;3.08;;
10293;SDS011;5192;50.328;7.610;2022-10-17T09:35:26;4.63;;;3.40;;
10293;SDS011;5192;50.328;7.610;2022-10-17T09:37:54;4.28;;;3.00;;
10293;SDS011;5192;50.328;7.610;2022-10-17T09:40:23;4.57;;;3.47;;
10293;SDS011;5192;50.328;7.610;2022-10-17T09:42:56;3.90;;;3.30;;
10293;SDS011;5192;50.328;7.610;2022-10-17T09:45:23;3.95;;;3.20;;
10293;SDS011;5192;50.328;7.610;2022-10-17T09:48:19;6.07;;;3.17;;
10293;SDS011;5192;50.328;7.610;2022-10-17T09:50:49;3.30;;;3.00;;
10293;SDS011;5192;50.328;7.610;2022-10-17T09:53:17;3.85;;;3.00;;
10293;SDS011;5192;50.328;7.610;2022-10-17T09:55:59;5.03;;;3.15;;
10293;SDS011;5192;50.328;7.610;2022-10-17T10:01:25;4.28;;;2.90;;
10293;SDS011;5192;50.328;7.610;2022-10-17T10:09:26;9.13;;;3.08;;
10293;SDS011;5192;50.328;7.610;2022-10-17T10:11:55;5.75;;;2.97;;
10293;SDS011;5192;50.328;7.610;2022-10-17T10:16:54;3.92;;;3.03;;
10293;SDS011;5192;50.328;7.610;2022-10-17T10:19:30;3.60;;;3.22;;
10293;SDS011;5192;50.328;7.610;2022-10-17T10:21:57;4.00;;;3.17;;
10293;SDS011;5192;50.328;7.610;2022-10-17T10:24:22;5.63;;;3.15;;
10293;SDS011;5192;50.328;7.610;2022-10-17T10:26:50;3.35;;;2.97;;
10293;SDS011;5192;50.328;7.610;2022-10-17T10:29:26;4.82;;;3.85;;
10293;SDS011;5192;50.328;7.610;2022-10-17T10:39:46;3.55;;;2.88;;
10293;SDS011;5192;50.328;7.610;2022-10-17T10:42:22;6.03;;;3.65;;
10293;SDS011;5192;50.328;7.610;2022-10-17T10:45:12;7.00;;;3.42;;
10293;SDS011;5192;50.328;7.610;2022-10-17T10:48:25;4.32;;;3.40;;
10293;SDS011;5192;50.328;7.610;2022-10-17T10:51:09;4.68;;;2.92;;
10293;SDS011;5192;50.328;7.610;2022-10-17T10:56:39;3.85;;;3.22;;
10293;SDS011;5192;50.328;7.610;2022-10-17T11:04:16;5.18;;;3.20;;
10293;SDS011;5192;50.328;7.610;2022-10-17T11:07:07;5.40;;;3.45;;
10293;SDS011;5192;50.328;7.610;2022-10-17T11:12:46;4.60;;;3.05;;
10293;SDS011;5192;50.328;7.610;2022-10-17T11:15:32;8.50;;;3.20;;
10293;SDS011;5192;50.328;7.610;2022-10-17T11:20:52;3.95;;;3.20;;
10293;SDS011;5192;50.328;7.610;2022-10-17T11:23:19;5.22;;;2.85;;
10293;SDS011;5192;50.328;7.610;2022-10-17T11:26:07;5.38;;;3.15;;
10293;SDS011;5192;50.328;7.610;2022-10-17T11:28:37;7.38;;;3.42;;
10293;SDS011;5192;50.328;7.610;2022-10-17T11:31:07;4.80;;;3.38;;
10293;SDS011;5192;50.328;7.610;2022-10-17T11:33:48;5.65;;;3.00;;
10293;SDS011;5192;50.328;7.610;2022-10-17T11:36:17;3.90;;;3.00;;
10293;SDS011;5192;50.328;7.610;2022-10-17T11:41:21;4.68;;;2.90;;
10293;SDS011;5192;50.328;7.610;2022-10-17T11:44:12;5.30;;;3.00;;
10293;SDS011;5192;50.328;7.610;2022-10-17T11:47:03;9.13;;;3.10;;
10293;SDS011;5192;50.328;7.610;2022-10-17T11:49:46;5.13;;;3.40;;
10293;SDS011;5192;50.328;7.610;2022-10-17T11:52:26;5.18;;;3.13;;
10293;SDS011;5192;50.328;7.610;2022-10-17T11:55:00;5.63;;;3.33;;
10293;SDS011;5192;50.328;7.610;2022-10-17T12:08:48;6.30;;;3.10;;
10293;SDS011;5192;50.328;7.610;2022-10-17T12:13:54;4.53;;;3.40;;
10293;SDS011;5192;50.328;7.610;2022-10-17T12:18:48;6.47;;;3.22;;
10293;SDS011;5192;50.328;7.610;2022-10-17T12:21:52;6.60;;;3.50;;
10293;SDS011;5192;50.328;7.610;2022-10-17T12:24:33;6.18;;;3.60;;
10293;SDS011;5192;50.328;7.610;2022-10-17T12:33:02;5.70;;;3.05;;
10293;SDS011;5192;50.328;7.610;2022-10-17T12:46:47;5.43;;;3.00;;
10293;SDS011;5192;50.328;7.610;2022-10-17T12:55:09;8.13;;;3.30;;
10293;SDS011;5192;50.328;7.610;2022-10-17T13:00:48;4.70;;;3.58;;
10293;SDS011;5192;50.328;7.610;2022-10-17T13:03:24;6.25;;;3.20;;
10293;SDS011;5192;50.328;7.610;2022-10-17T13:05:54;6.55;;;3.25;;
10293;SDS011;5192;50.328;7.610;2022-10-17T13:08:27;6.43;;;3.38;;
10293;SDS011;5192;50.328;7.610;2022-10-17T13:11:08;4.93;;;3.50;;
10293;SDS011;5192;50.328;7.610;2022-10-17T13:13:40;7.60;;;3.10;;
10293;SDS011;5192;50.328;7.610;2022-10-17T13:16:08;4.45;;;3.30;;
10293;SDS011;5192;50.328;7.610;2022-10-17T13:18:52;5.50;;;3.25;;
10293;SDS011;5192;50.328;7.610;2022-10-17T13:21:18;3.47;;;3.15;;
10293;SDS011;5192;50.328;7.610;2022-10-17T13:23:44;5.85;;;2.80;;
10293;SDS011;5192;50.328;7.610;2022-10-17T13:26:13;3.78;;;3.17;;
10293;SDS011;5192;50.328;7.610;2022-10-17T13:29:00;6.40;;;3.10;;
10293;SDS011;5192;50.328;7.610;2022-10-17T13:31:35;7.25;;;3.15;;
10293;SDS011;5192;50.328;7.610;2022-10-17T13:34:04;5.43;;;3.17;;
10293;SDS011;5192;50.328;7.610;2022-10-17T13:36:31;4.47;;;3.38;;
10293;SDS011;5192;50.328;7.610;2022-10-17T13:38:58;6.20;;;3.20;;
10293;SDS011;5192;50.328;7.610;2022-10-17T13:41:29;3.20;;;2.70;;
10293;SDS011;5192;50.328;7.610;2022-10-17T13:44:01;7.00;;;3.33;;
10293;SDS011;5192;50.328;7.610;2022-10-17T13:46:32;5.88;;;2.90;;
10293;SDS011;5192;50.328;7.610;2022-10-17T13:49:07;6.88;;;3.10;;
10293;SDS011;5192;50.328;7.610;2022-10-17T13:51:49;3.53;;;2.60;;
10293;SDS011;5192;50.328;7.610;2022-10-17T13:54:17;6.13;;;2.90;;
10293;SDS011;5192;50.328;7.610;2022-10-17T13:57:15;5.93;;;3.10;;
10293;SDS011;5192;50.328;7.610;2022-10-17T13:59:41;4.97;;;2.97;;
10293;SDS011;5192;50.328;7.610;2022-10-17T14:10:25;4.55;;;2.88;;
10293;SDS011;5192;50.328;7.610;2022-10-17T14:13:03;3.78;;;2.83;;
10293;SDS011;5192;50.328;7.610;2022-10-17T14:15:36;5.97;;;3.30;;
10293;SDS011;5192;50.328;7.610;2022-10-17T14:18:03;6.47;;;3.20;;
10293;SDS011;5192;50.328;7.610;2022-10-17T14:20:32;6.75;;;3.28;;
10293;SDS011;5192;50.328;7.610;2022-10-17T14:22:59;6.78;;;3.22;;
10293;SDS011;5192;50.328;7.610;2022-10-17T14:25:36;6.80;;;2.80;;
10293;SDS011;5192;50.328;7.610;2022-10-17T14:28:13;8.13;;;3.00;;
10293;SDS011;5192;50.328;7.610;2022-10-17T14:30:44;7.18;;;2.95;;
10293;SDS011;5192;50.328;7.610;2022-10-17T14:33:27;6.43;;;3.22;;
10293;SDS011;5192;50.328;7.610;2022-10-17T14:35:56;7.60;;;3.00;;
10293;SDS011;5192;50.328;7.610;2022-10-17T14:38:24;6.82;;;3.38;;
10293;SDS011;5192;50.328;7.610;2022-10-17T14:40:59;6.07;;;2.97;;
10293;SDS011;5192;50.328;7.610;2022-10-17T14:43:29;4.15;;;2.90;;
10293;SDS011;5192;50.328;7.610;2022-10-17T14:45:57;5.97;;;3.65;;
10293;SDS011;5192;50.328;7.610;2022-10-17T14:48:26;7.32;;;3.17;;
10293;SDS011;5192;50.328;7.610;2022-10-17T14:51:09;5.10;;;3.25;;
10293;SDS011;5192;50.328;7.610;2022-10-17T14:53:40;8.50;;;3.72;;
10293;SDS011;5192;50.328;7.610;2022-10-17T14:56:27;5.55;;;3.00;;
10293;SDS011;5192;50.328;7.610;2022-10-17T14:58:59;4.80;;;3.10;;
10293;SDS011;5192;50.328;7.610;2022-10-17T15:01:26;5.78;;;3.40;;
10293;SDS011;5192;50.328;7.610;2022-10-17T15:03:52;9.55;;;3.20;;
10293;SDS011;5192;50.328;7.610;2022-10-17T15:06:19;5.13;;;3.25;;
10293;SDS011;5192;50.328;7.610;2022-10-17T15:08:48;8.27;;;3.20;;
10293;SDS011;5192;50.328;7.610;2022-10-17T15:11:13;3.97;;;3.05;;
10293;SDS011;5192;50.328;7.610;2022-10-17T15:13:39;7.03;;;3.40;;
10293;SDS011;5192;50.328;7.610;2022-10-17T15:16:08;7.35;;;3.70;;
10293;SDS011;5192;50.328;7.610;2022-10-17T15:18:51;5.70;;;3.00;;
10293;SDS011;5192;50.328;7.610;2022-10-17T15:21:21;6.53;;;3.10;;
10293;SDS011;5192;50.328;7.610;2022-10-17T15:23:48;4.68;;;3.20;;
10293;SDS011;5192;50.328;7.610;2022-10-17T15:28:45;5.35;;;3.00;;
10293;SDS011;5192;50.328;7.610;2022-10-17T15:31:12;7.03;;;3.65;;
10293;SDS011;5192;50.328;7.610;2022-10-17T15:33:39;5.35;;;3.50;;
10293;SDS011;5192;50.328;7.610;2022-10-17T15:36:25;7.13;;;3.58;;
10293;SDS011;5192;50.328;7.610;2022-10-17T15:38:54;8.88;;;3.75;;
10293;SDS011;5192;50.328;7.610;2022-10-17T15:41:22;6.43;;;3.20;;
10293;SDS011;5192;50.328;7.610;2022-10-17T15:43:49;4.10;;;3.50;;
10293;SDS011;5192;50.328;7.610;2022-10-17T15:46:22;3.85;;;2.83;;
10293;SDS011;5192;50.328;7.610;2022-10-17T15:48:50;4.20;;;3.38;;
10293;SDS011;5192;50.328;7.610;2022-10-17T15:51:16;5.07;;;3.17;;
10293;SDS011;5192;50.328;7.610;2022-10-17T15:53:42;6.95;;;2.92;;
10293;SDS011;5192;50.328;7.610;2022-10-17T15:56:10;9.20;;;3.58;;
10293;SDS011;5192;50.328;7.610;2022-10-17T15:58:46;8.85;;;3.10;;
10293;SDS011;5192;50.328;7.610;2022-10-17T16:01:18;8.43;;;3.25;;
10293;SDS011;5192;50.328;7.610;2022-10-17T16:03:47;6.93;;;3.13;;
10293;SDS011;5192;50.328;7.610;2022-10-17T16:06:14;6.18;;;3.40;;
10293;SDS011;5192;50.328;7.610;2022-10-17T16:08:44;7.40;;;3.47;;
10293;SDS011;5192;50.328;7.610;2022-10-17T16:13:55;8.02;;;3.17;;
10293;SDS011;5192;50.328;7.610;2022-10-17T16:16:22;7.53;;;3.63;;
10293;SDS011;5192;50.328;7.610;2022-10-17T16:18:48;9.00;;;3.40;;
10293;SDS011;5192;50.328;7.610;2022-10-17T16:21:14;5.00;;;3.08;;
10293;SDS011;5192;50.328;7.610;2022-10-17T16:23:41;7.70;;;3.25;;
10293;SDS011;5192;50.328;7.610;2022-10-17T16:26:07;9.85;;;3.72;;
10293;SDS011;5192;50.328;7.610;2022-10-17T16:28:33;6.88;;;3.83;;
10293;SDS011;5192;50.328;7.610;2022-10-17T16:30:59;5.30;;;3.60;;
10293;SDS011;5192;50.328;7.610;2022-10-17T16:33:25;7.97;;;3.58;;
10293;SDS011;5192;50.328;7.610;2022-10-17T16:35:50;7.50;;;3.97;;
10293;SDS011;5192;50.328;7.610;2022-10-17T16:38:16;5.65;;;3.30;;
10293;SDS011;5192;50.328;7.610;2022-10-17T16:40:42;8.45;;;4.00;;
10293;SDS011;5192;50.328;7.610;2022-10-17T16:43:09;8.20;;;3.90;;
10293;SDS011;5192;50.328;7.610;2022-10-17T16:45:38;8.02;;;3.67;;
10293;SDS011;5192;50.328;7.610;2022-10-17T16:48:04;8.95;;;3.67;;
10293;SDS011;5192;50.328;7.610;2022-10-17T16:50:29;6.93;;;3.47;;
10293;SDS011;5192;50.328;7.610;2022-10-17T16:52:59;9.00;;;3.95;;
10293;SDS011;5192;50.328;7.610;2022-10-17T16:55:25;8.82;;;3.95;;
10293;SDS011;5192;50.328;7.610;2022-10-17T16:57:51;9.77;;;3.83;;
10293;SDS011;5192;50.328;7.610;2022-10-17T17:00:16;10.55;;;4.35;;
10293;SDS011;5192;50.328;7.610;2022-10-17T17:02:43;9.13;;;4.35;;
10293;SDS011;5192;50.328;7.610;2022-10-17T17:05:11;18.00;;;4.47;;
10293;SDS011;5192;50.328;7.610;2022-10-17T17:07:36;14.27;;;4.43;;
10293;SDS011;5192;50.328;7.610;2022-10-17T17:10:03;9.35;;;3.83;;
10293;SDS011;5192;50.328;7.610;2022-10-17T17:12:30;10.77;;;4.10;;
10293;SDS011;5192;50.328;7.610;2022-10-17T17:14:57;10.77;;;3.83;;
10293;SDS011;5192;50.328;7.610;2022-10-17T17:17:23;14.07;;;4.40;;
10293;SDS011;5192;50.328;7.610;2022-10-17T17:19:48;11.30;;;4.03;;
10293;SDS011;5192;50.328;7.610;2022-10-17T17:22:14;9.70;;;4.00;;
10293;SDS011;5192;50.328;7.610;2022-10-17T17:24:39;15.50;;;4.40;;
10293;SDS011;5192;50.328;7.610;2022-10-17T17:27:05;10.70;;;3.97;;
10293;SDS011;5192;50.328;7.610;2022-10-17T17:29:31;10.57;;;4.00;;
10293;SDS011;5192;50.328;7.610;2022-10-17T17:31:57;13.43;;;4.27;;
10293;SDS011;5192;50.328;7.610;2022-10-17T17:34:23;14.05;;;4.10;;
10293;SDS011;5192;50.328;7.610;2022-10-17T17:36:48;11.17;;;4.03;;
10293;SDS011;5192;50.328;7.610;2022-10-17T17:39:14;13.40;;;4.13;;
10293;SDS011;5192;50.328;7.610;2022-10-17T17:41:40;9.03;;;4.20;;
10293;SDS011;5192;50.328;7.610;2022-10-17T17:44:09;15.77;;;4.30;;
10293;SDS011;5192;50.328;7.610;2022-10-17T17:46:36;12.60;;;3.70;;